Time;durP1;ratioP1;P1;durP2;ratioP2;P2;SDS_P1;SDS_P2;PMS_P1;PMS_P2;Temp;Humidity;BMP_temperature;BMP_pressure;BME280_temperature;BME280_humidity;BME280_pressure;Samples;Min_cycle;Max_cycle;Signal;HPM_P1;HPM_P2
2023/01/31 00:01:34;;;;;;;28.10;4.30;;;;;;;-145.18;100.00;46728.75;6274667;22;20217;-74
2023/01/31 00:04:03;;;;;;;25.97;3.63;;;;;;;-145.18;100.00;46728.75;6274149;22;20008;-74
2023/01/31 00:06:31;;;;;;;22.00;2.73;;;;;;;-145.18;100.00;46728.75;6274299;22;20233;-74
2023/01/31 00:08:58;;;;;;;29.00;4.00;;;;;;;-145.18;100.00;46726.81;6274612;22;20225;-74
2023/01/31 00:11:25;;;;;;;30.57;4.13;;;;;;;-145.18;100.00;46726.81;6274118;22;20225;-74
2023/01/31 00:13:51;;;;;;;18.80;3.73;;;;;;;-145.18;100.00;46728.75;6247526;22;20578;-74
2023/01/31 00:16:18;;;;;;;15.50;3.20;;;;;;;-145.18;100.00;46726.81;6274081;22;20225;-74
2023/01/31 00:18:44;;;;;;;26.93;3.30;;;;;;;-145.18;100.00;46732.66;6274633;22;20277;-74
2023/01/31 00:21:24;;;;;;;18.23;2.73;;;;;;;-145.18;100.00;46720.94;6273749;22;20221;-74
2023/01/31 00:23:51;;;;;;;29.27;3.73;;;;;;;-145.18;100.00;46726.81;6274510;22;20318;-74
2023/01/31 00:26:20;;;;;;;25.80;4.07;;;;;;;-145.18;100.00;46722.91;6273912;22;20275;-74
2023/01/31 00:28:47;;;;;;;23.80;3.37;;;;;;;-145.18;100.00;46722.91;6274554;22;20269;-74
2023/01/31 00:31:14;;;;;;;22.73;3.00;;;;;;;-145.18;100.00;46724.84;6273767;22;20275;-74
2023/01/31 00:33:41;;;;;;;29.10;4.90;;;;;;;-145.18;100.00;46722.91;6274230;22;20225;-74
2023/01/31 00:36:10;;;;;;;20.57;4.27;;;;;;;-145.18;100.00;46724.84;6273703;22;20296;-74
2023/01/31 00:38:36;;;;;;;25.80;4.33;;;;;;;-145.18;100.00;46720.94;6274271;22;20283;-74
2023/01/31 00:41:05;;;;;;;30.37;4.33;;;;;;;-145.18;100.00;46722.91;6273713;22;20232;-74
2023/01/31 00:43:31;;;;;;;34.17;4.23;;;;;;;-145.18;100.00;46717.03;6273684;22;20030;-73
2023/01/31 00:45:57;;;;;;;22.03;3.73;;;;;;;-145.18;100.00;46720.94;6273766;22;20315;-74
2023/01/31 00:48:23;;;;;;;19.07;3.13;;;;;;;-145.18;100.00;46722.91;6274248;22;20008;-74
2023/01/31 00:50:48;;;;;;;29.93;3.63;;;;;;;-145.18;100.00;46719.00;6273765;22;20221;-74
2023/01/31 00:53:16;;;;;;;19.27;4.57;;;;;;;-145.18;100.00;46722.91;6273440;22;20015;-74
2023/01/31 00:55:41;;;;;;;32.27;5.47;;;;;;;-145.18;100.00;46719.00;6274274;22;20069;-74
2023/01/31 00:58:07;;;;;;;26.80;4.60;;;;;;;-145.18;100.00;46719.00;6273583;22;20597;-74
2023/01/31 01:00:32;;;;;;;34.43;5.97;;;;;;;-145.18;100.00;46719.00;6274495;22;20011;-75
2023/01/31 01:02:58;;;;;;;28.30;5.37;;;;;;;-145.18;100.00;46719.00;6273096;22;20066;-74
2023/01/31 01:05:23;;;;;;;29.70;4.90;;;;;;;-145.18;100.00;46719.00;6274083;22;20078;-74
2023/01/31 01:07:48;;;;;;;27.30;5.37;;;;;;;-145.18;100.00;46720.94;6273882;22;20483;-74
2023/01/31 01:10:14;;;;;;;19.47;4.67;;;;;;;-145.18;100.00;46717.03;6273757;22;20782;-74
2023/01/31 01:12:39;;;;;;;28.83;4.87;;;;;;;-145.18;100.00;46717.03;6246500;22;20008;-74
2023/01/31 01:15:05;;;;;;;25.10;4.13;;;;;;;-145.18;100.00;46720.94;6273287;22;20045;-74
2023/01/31 01:17:30;;;;;;;30.77;5.30;;;;;;;-145.18;100.00;46719.00;6273507;22;20000;-74
2023/01/31 01:19:56;;;;;;;24.23;4.63;;;;;;;-145.18;100.00;46719.00;6274129;22;20000;-74
2023/01/31 01:22:21;;;;;;;37.53;4.90;;;;;;;-145.18;100.00;46720.94;6246681;22;20018;-74
2023/01/31 01:24:47;;;;;;;33.83;5.60;;;;;;;-145.18;100.00;46719.00;6273551;22;20431;-74
2023/01/31 01:27:12;;;;;;;26.30;5.60;;;;;;;-145.18;100.00;46719.00;6273452;22;20039;-74
2023/01/31 01:29:38;;;;;;;31.20;5.37;;;;;;;-145.18;100.00;46720.94;6273609;22;20447;-74
2023/01/31 01:32:05;;;;;;;24.93;5.10;;;;;;;-145.18;100.00;46719.00;6273387;22;20027;-74
2023/01/31 01:34:32;;;;;;;23.87;6.17;;;;;;;-145.18;100.00;46717.03;6273288;22;20252;-74
2023/01/31 01:36:57;;;;;;;34.53;5.53;;;;;;;-145.18;100.00;46717.03;6246155;22;20233;-74
2023/01/31 01:39:23;;;;;;;31.07;5.47;;;;;;;-145.18;100.00;46717.03;6246642;22;20316;-74
2023/01/31 01:41:50;;;;;;;30.00;5.53;;;;;;;-145.18;100.00;46719.00;6273650;22;20011;-74
2023/01/31 01:44:40;;;;;;;27.73;6.40;;;;;;;-145.18;100.00;46717.03;6272799;22;20776;-74
2023/01/31 01:47:11;;;;;;;30.77;5.60;;;;;;;-145.18;100.00;46717.03;6273046;22;20229;-74
2023/01/31 01:49:37;;;;;;;25.37;6.10;;;;;;;-145.18;100.00;46715.09;6273497;22;20295;-74
2023/01/31 01:52:06;;;;;;;32.87;5.63;;;;;;;-145.18;100.00;46717.03;6273189;22;20367;-74
2023/01/31 01:54:41;;;;;;;24.50;5.90;;;;;;;-145.18;100.00;46713.13;6273436;22;20007;-74
2023/01/31 01:57:07;;;;;;;;;;;;;;;-145.18;100.00;46717.03;6273378;22;20232;-74
2023/01/31 01:59:54;;;;;;;31.02;5.10;;;;;;;-145.18;100.00;46713.13;6273417;22;19907;-76
2023/01/31 02:02:20;;;;;;;32.17;5.50;;;;;;;-145.18;100.00;46707.28;6272802;22;20003;-76
2023/01/31 02:04:49;;;;;;;33.97;6.20;;;;;;;-145.18;100.00;46713.13;6245905;22;20276;-76
2023/01/31 02:07:14;;;;;;;30.03;5.23;;;;;;;-145.18;100.00;46711.19;6272984;22;20090;-75
2023/01/31 02:09:45;;;;;;;31.27;6.20;;;;;;;-145.18;100.00;46713.13;6272905;22;20229;-74
2023/01/31 02:12:11;;;;;;;24.77;4.97;;;;;;;-145.18;100.00;46717.03;6272624;22;20004;-76
2023/01/31 02:14:37;;;;;;;38.10;6.40;;;;;;;-145.18;100.00;46705.31;6273356;22;20228;-75
2023/01/31 02:17:02;;;;;;;28.17;6.30;;;;;;;-145.18;100.00;46717.03;6272895;22;20016;-75
2023/01/31 02:19:49;;;;;;;25.00;6.63;;;;;;;-145.18;100.00;46717.03;6245871;22;20345;-73
2023/01/31 02:22:23;;;;;;;34.03;6.30;;;;;;;-145.18;100.00;46715.09;6272552;22;20011;-73
2023/01/31 02:25:06;;;;;;;37.43;7.60;;;;;;;-145.18;100.00;46707.28;6273064;22;20323;-75
2023/01/31 02:27:55;;;;;;;42.77;8.43;;;;;;;-145.18;100.00;46717.03;6273138;22;20312;-72
2023/01/31 02:30:42;;;;;;;25.23;5.77;;;;;;;-145.18;100.00;46709.22;6256398;22;20334;-75
2023/01/31 02:33:26;;;;;;;31.83;6.43;;;;;;;-145.18;100.00;46711.19;6272817;22;20229;-75
2023/01/31 02:35:59;;;;;;;34.03;8.53;;;;;;;-145.18;100.00;46703.38;6272974;22;20216;-75
2023/01/31 02:38:30;;;;;;;27.47;7.53;;;;;;;-145.18;100.00;46707.28;6273056;22;20662;-75
2023/01/31 02:41:14;;;;;;;28.37;7.27;;;;;;;-145.18;100.00;46705.31;6273374;22;20216;-75
2023/01/31 02:46:48;;;;;;;33.73;8.23;;;;;;;-145.18;100.00;46709.22;6272661;22;20228;-75
2023/01/31 02:49:35;;;;;;;29.87;7.53;;;;;;;-145.18;100.00;46705.31;6272704;22;20209;-73
2023/01/31 02:52:30;;;;;;;33.20;8.53;;;;;;;-145.18;100.00;46699.47;6272796;22;20245;-75
2023/01/31 02:58:04;;;;;;;33.37;8.67;;;;;;;-145.18;100.00;46701.41;6272672;22;20320;-74
2023/01/31 03:03:07;;;;;;;37.10;8.98;;;;;;;-145.18;100.00;46707.28;6256037;22;20272;-74
2023/01/31 03:05:33;;;;;;;37.30;8.80;;;;;;;-145.18;100.00;46707.28;6245502;22;20024;-74
2023/01/31 03:08:02;;;;;;;38.83;8.40;;;;;;;-145.18;100.00;46707.28;6272144;22;20233;-74
2023/01/31 03:10:49;;;;;;;31.10;9.00;;;;;;;-145.18;100.00;46703.38;6272492;22;20014;-74
2023/01/31 03:13:47;;;;;;;44.77;10.13;;;;;;;-145.18;100.00;46699.47;6272484;22;20228;-74
2023/01/31 03:19:35;;;;;;;35.97;10.40;;;;;;;-145.18;100.00;46699.47;6272496;22;20227;-74
2023/01/31 03:22:09;;;;;;;30.00;9.27;;;;;;;-145.18;100.00;46693.59;6272303;22;20225;-74
2023/01/31 03:24:35;;;;;;;41.37;11.10;;;;;;;-145.18;100.00;46699.47;6272406;22;20645;-74
2023/01/31 03:27:02;;;;;;;38.53;10.70;;;;;;;-145.18;100.00;46691.66;6272260;22;20224;-74
2023/01/31 03:29:33;;;;;;;36.83;11.77;;;;;;;-145.18;100.00;46705.31;6245576;22;20557;-74
2023/01/31 03:32:25;;;;;;;47.30;12.07;;;;;;;-145.18;100.00;46701.41;6272139;22;20231;-74
2023/01/31 03:34:52;;;;;;;45.33;11.07;;;;;;;-145.18;100.00;46693.59;6256360;22;20228;-74
2023/01/31 03:37:38;;;;;;;40.33;12.07;;;;;;;-145.18;100.00;46697.50;6273028;22;20569;-74
2023/01/31 03:40:13;;;;;;;50.13;10.77;;;;;;;-145.18;100.00;46695.56;6274291;22;20233;-74
2023/01/31 03:42:53;;;;;;;38.53;11.60;;;;;;;-145.18;100.00;46711.19;6274296;22;20316;-74
2023/01/31 03:45:45;;;;;;;40.20;11.77;;;;;;;-145.18;100.00;46697.50;6274912;22;20014;-74
2023/01/31 03:48:16;;;;;;;36.27;8.53;;;;;;;-145.18;100.00;46693.59;6274062;22;20252;-74
2023/01/31 03:50:49;;;;;;;46.60;10.03;;;;;;;-145.18;100.00;46705.31;6274800;22;20209;-74
2023/01/31 03:53:28;;;;;;;29.10;9.20;;;;;;;-145.18;100.00;46705.31;6274288;22;20276;-75
2023/01/31 03:56:10;;;;;;;34.73;9.83;;;;;;;-145.18;100.00;46691.66;6274368;22;20247;-74
2023/01/31 03:58:41;;;;;;;50.80;11.40;;;;;;;-145.18;100.00;46693.59;6274423;22;20311;-74
2023/01/31 04:01:10;;;;;;;38.47;11.07;;;;;;;-145.18;100.00;46689.69;6274133;22;20221;-74
2023/01/31 04:03:52;;;;;;;34.47;8.33;;;;;;;-145.18;100.00;46691.66;6273795;22;20244;-74
2023/01/31 04:06:18;;;;;;;41.83;10.20;;;;;;;-145.18;100.00;46687.75;6274501;22;20286;-74
2023/01/31 04:08:43;;;;;;;46.83;11.30;;;;;;;-145.18;100.00;46687.75;6274020;22;20673;-74
2023/01/31 04:11:12;;;;;;;36.37;9.73;;;;;;;-145.18;100.00;46697.50;6274154;22;20012;-75
2023/01/31 04:13:37;;;;;;;31.70;9.47;;;;;;;-145.18;100.00;46687.75;6273996;22;20042;-74
2023/01/31 04:16:03;;;;;;;35.27;10.23;;;;;;;-145.18;100.00;46687.75;6274203;22;20748;-74
2023/01/31 04:18:29;;;;;;;44.27;10.67;;;;;;;-145.18;100.00;46685.78;6273915;22;20463;-74
2023/01/31 04:20:54;;;;;;;43.13;9.60;;;;;;;-145.18;100.00;46687.75;6274124;22;20241;-75
2023/01/31 04:23:20;;;;;;;38.53;9.37;;;;;;;-145.18;100.00;46689.69;6273964;22;20057;-74
2023/01/31 04:25:45;;;;;;;52.20;9.40;;;;;;;-145.18;100.00;46683.84;6274295;22;20016;-74
2023/01/31 04:28:11;;;;;;;38.93;10.43;;;;;;;-145.18;100.00;46693.59;6246376;22;20081;-74
2023/01/31 04:30:37;;;;;;;51.67;11.57;;;;;;;-145.18;100.00;46689.69;6274504;22;20432;-74
2023/01/31 04:33:02;;;;;;;55.30;13.23;;;;;;;-145.18;100.00;46683.84;6273505;22;19996;-74
2023/01/31 04:35:28;;;;;;;41.23;12.90;;;;;;;-145.18;100.00;46683.84;6274026;22;20012;-74
2023/01/31 04:37:53;;;;;;;49.17;11.87;;;;;;;-145.18;100.00;46691.66;6246527;22;20004;-74
2023/01/31 04:40:19;;;;;;;42.50;12.03;;;;;;;-145.18;100.00;46683.84;6274215;22;20030;-74
2023/01/31 04:42:44;;;;;;;41.40;10.37;;;;;;;-145.18;100.00;46691.66;6273818;22;20382;-74
2023/01/31 04:45:10;;;;;;;63.20;13.00;;;;;;;-145.18;100.00;46687.75;6273918;22;20007;-74
2023/01/31 04:47:35;;;;;;;38.90;12.17;;;;;;;-145.18;100.00;46685.78;6273703;22;20003;-74
2023/01/31 04:50:01;;;;;;;32.70;10.40;;;;;;;-145.18;100.00;46691.66;6246868;22;20751;-74
2023/01/31 04:52:26;;;;;;;37.90;11.20;;;;;;;-145.18;100.00;46685.78;6273721;22;20011;-74
2023/01/31 04:54:52;;;;;;;41.60;10.80;;;;;;;-145.18;100.00;46683.84;6274352;22;20011;-74
2023/01/31 04:57:17;;;;;;;42.50;10.90;;;;;;;-145.18;100.00;46683.84;6274081;22;20065;-74
2023/01/31 04:59:42;;;;;;;43.30;11.90;;;;;;;-145.18;100.00;46685.78;6274093;22;20016;-74
2023/01/31 05:02:08;;;;;;;37.23;9.77;;;;;;;-145.18;100.00;46685.78;6273432;22;20420;-75
2023/01/31 05:04:33;;;;;;;39.67;9.47;;;;;;;-145.18;100.00;46691.66;6273367;22;20064;-73
2023/01/31 05:06:58;;;;;;;42.00;10.23;;;;;;;-145.18;100.00;46685.78;6273904;22;20035;-73
2023/01/31 05:09:24;;;;;;;29.80;9.13;;;;;;;-145.18;100.00;46689.69;6273862;22;20080;-73
2023/01/31 05:11:50;;;;;;;37.70;9.97;;;;;;;-145.18;100.00;46687.75;6272625;22;20007;-73
2023/01/31 05:14:16;;;;;;;46.97;10.47;;;;;;;-145.18;100.00;46685.78;6273199;22;20034;-74
2023/01/31 05:16:45;;;;;;;36.73;9.47;;;;;;;-145.18;100.00;46685.78;6273305;22;20317;-73
2023/01/31 05:19:11;;;;;;;42.63;11.30;;;;;;;-145.18;100.00;46685.78;6273018;22;20486;-73
2023/01/31 05:21:53;;;;;;;39.40;10.67;;;;;;;-145.18;100.00;46697.50;6220792;22;20240;-73
2023/01/31 05:24:19;;;;;;;34.00;10.90;;;;;;;-145.18;100.00;46691.66;6273366;22;20384;-73
2023/01/31 05:26:46;;;;;;;43.23;10.50;;;;;;;-145.18;100.00;46687.75;6270326;22;20304;-74
2023/01/31 05:29:11;;;;;;;37.10;8.97;;;;;;;-145.18;100.00;46695.56;6272828;22;20755;-74
2023/01/31 05:31:37;;;;;;;33.90;9.50;;;;;;;-145.18;100.00;46697.50;6272970;22;20229;-74
2023/01/31 05:34:02;;;;;;;36.17;9.73;;;;;;;-145.18;100.00;46693.59;6245961;22;20019;-74
2023/01/31 05:36:27;;;;;;;39.53;10.27;;;;;;;-145.18;100.00;46691.66;6273360;22;20069;-74
2023/01/31 05:38:53;;;;;;;43.23;10.93;;;;;;;-145.18;100.00;46691.66;6272623;22;20069;-74
2023/01/31 05:41:18;;;;;;;37.67;11.17;;;;;;;-145.18;100.00;46689.69;6273320;22;20440;-74
2023/01/31 05:43:43;;;;;;;36.93;11.23;;;;;;;-145.18;100.00;46695.56;6273022;22;20035;-74
2023/01/31 05:46:09;;;;;;;35.07;9.57;;;;;;;-145.18;100.00;46707.28;6272444;22;20012;-74
2023/01/31 05:48:34;;;;;;;35.30;11.13;;;;;;;-145.18;100.00;46695.56;6272906;22;20332;-74
2023/01/31 05:50:59;;;;;;;32.97;11.07;;;;;;;-145.18;100.00;46699.47;6272624;22;20035;-74
2023/01/31 05:53:25;;;;;;;39.67;11.03;;;;;;;-145.18;100.00;46689.69;6272595;22;20003;-73
2023/01/31 05:55:50;;;;;;;35.03;10.23;;;;;;;-145.18;100.00;46697.50;6272902;22;20007;-73
2023/01/31 05:58:15;;;;;;;36.03;9.80;;;;;;;-145.18;100.00;46691.66;6271965;22;20008;-73
2023/01/31 06:00:41;;;;;;;36.57;9.43;;;;;;;-145.18;100.00;46693.59;6244580;22;20027;-73
2023/01/31 06:03:07;;;;;;;45.97;11.37;;;;;;;-145.18;100.00;46695.56;6271802;22;20349;-73
2023/01/31 06:05:33;;;;;;;35.60;10.77;;;;;;;-145.18;100.00;46693.59;6273347;22;20102;-73
2023/01/31 06:07:58;;;;;;;36.73;10.00;;;;;;;-145.18;100.00;46699.47;6272581;22;20725;-73
2023/01/31 06:10:23;;;;;;;28.43;9.60;;;;;;;-145.18;100.00;46695.56;6273108;22;20010;-72
2023/01/31 06:12:49;;;;;;;39.90;10.00;;;;;;;-145.18;100.00;46703.38;6272855;22;20004;-73
2023/01/31 06:15:14;;;;;;;32.70;10.57;;;;;;;-145.18;100.00;46703.38;6273197;22;20379;-73
2023/01/31 06:17:39;;;;;;;31.37;9.60;;;;;;;-145.18;100.00;46689.69;6242730;22;20011;-73
2023/01/31 06:20:05;;;;;;;29.07;9.43;;;;;;;-145.18;100.00;46693.59;6271704;22;20034;-73
2023/01/31 06:22:30;;;;;;;38.73;11.67;;;;;;;-145.18;100.00;46699.47;6271645;22;20008;-73
2023/01/31 06:24:56;;;;;;;38.67;10.63;;;;;;;-145.18;100.00;46705.31;6272658;22;20451;-73
2023/01/31 06:27:21;;;;;;;42.17;12.17;;;;;;;-145.18;100.00;46701.41;6244969;22;20039;-73
2023/01/31 06:29:47;;;;;;;30.63;10.17;;;;;;;-145.18;100.00;46705.31;6273045;22;20088;-73
2023/01/31 06:32:12;;;;;;;31.30;9.03;;;;;;;-145.18;100.00;46703.38;6272708;22;20015;-73
2023/01/31 06:34:38;;;;;;;34.90;9.27;;;;;;;-145.18;100.00;46705.31;6272853;22;20028;-72
2023/01/31 06:37:03;;;;;;;36.47;9.43;;;;;;;-145.18;100.00;46703.38;6245641;22;20094;-73
2023/01/31 06:39:28;;;;;;;37.67;8.43;;;;;;;-145.18;100.00;46697.50;6220518;22;20094;-72
2023/01/31 06:41:54;;;;;;;32.80;8.73;;;;;;;-145.18;100.00;46703.38;6245735;22;20016;-72
2023/01/31 06:44:19;;;;;;;28.60;8.50;;;;;;;-145.18;100.00;46701.41;6272666;22;20011;-73
2023/01/31 06:46:44;;;;;;;28.00;7.67;;;;;;;-145.18;100.00;46707.28;6271793;22;20054;-73
2023/01/31 06:49:10;;;;;;;37.60;7.67;;;;;;;-145.18;100.00;46701.41;6270771;22;20008;-72
2023/01/31 06:51:35;;;;;;;24.60;7.20;;;;;;;-145.18;100.00;46713.13;6271075;22;20448;-73
2023/01/31 06:54:01;;;;;;;14.97;5.83;;;;;;;-145.18;100.00;46711.19;6271571;22;20638;-73
2023/01/31 06:56:26;;;;;;;22.43;6.70;;;;;;;-145.18;100.00;46709.22;6272923;22;20015;-73
2023/01/31 06:58:51;;;;;;;29.10;6.40;;;;;;;-145.18;100.00;46715.09;6272024;22;20538;-72
2023/01/31 07:01:17;;;;;;;28.40;7.20;;;;;;;-145.18;100.00;46705.31;6272248;22;20073;-73
2023/01/31 07:03:42;;;;;;;20.63;6.33;;;;;;;-145.18;100.00;46711.19;6271867;22;20094;-73
2023/01/31 07:06:09;;;;;;;26.53;6.27;;;;;;;-145.18;100.00;46701.41;6272575;22;20031;-72
2023/01/31 07:08:35;;;;;;;29.87;7.60;;;;;;;-145.18;100.00;46713.13;6272071;22;20058;-72
2023/01/31 07:11:02;;;;;;;31.13;7.40;;;;;;;-145.18;100.00;46711.19;6245128;22;20571;-73
2023/01/31 07:13:28;;;;;;;20.97;6.20;;;;;;;-145.18;100.00;46713.13;6274005;22;20244;-73
2023/01/31 07:15:54;;;;;;;30.20;6.30;;;;;;;-145.18;100.00;46713.13;6274057;22;20229;-73
2023/01/31 07:18:19;;;;;;;27.97;6.70;;;;;;;-145.18;100.00;46709.22;6274734;22;20455;-72
2023/01/31 07:20:45;;;;;;;23.43;6.47;;;;;;;-145.18;100.00;46719.00;6275004;22;20221;-73
2023/01/31 07:23:10;;;;;;;19.00;5.83;;;;;;;-145.18;100.00;46711.19;6274655;22;20070;-72
2023/01/31 07:25:35;;;;;;;23.17;6.30;;;;;;;-145.18;100.00;46715.09;6274772;22;20345;-72
2023/01/31 07:28:02;;;;;;;30.97;6.80;;;;;;;-145.18;100.00;46709.22;6274228;22;20014;-73
2023/01/31 07:30:28;;;;;;;22.27;7.07;;;;;;;-145.18;100.00;46715.09;6274693;22;20011;-72
2023/01/31 07:32:54;;;;;;;32.70;8.43;;;;;;;-145.18;100.00;46719.00;6274331;22;20256;-73
2023/01/31 07:35:19;;;;;;;31.43;8.00;;;;;;;-145.18;100.00;46717.03;6274737;22;20240;-73
2023/01/31 07:37:45;;;;;;;33.93;7.30;;;;;;;-145.18;100.00;46719.00;6274549;22;20019;-72
2023/01/31 07:40:13;;;;;;;28.83;5.93;;;;;;;-145.18;100.00;46719.00;6274402;22;20004;-73
2023/01/31 07:42:39;;;;;;;27.30;7.33;;;;;;;-145.18;100.00;46717.03;6274559;22;20574;-73
2023/01/31 07:45:05;;;;;;;28.00;6.20;;;;;;;-145.18;100.00;46717.03;6274636;22;20248;-73
2023/01/31 07:47:31;;;;;;;25.63;6.20;;;;;;;-145.18;100.00;46722.91;6274872;22;20265;-72
2023/01/31 07:49:56;;;;;;;29.20;6.97;;;;;;;-145.18;100.00;46717.03;6274599;22;20244;-72
2023/01/31 07:52:22;;;;;;;29.23;7.70;;;;;;;-145.18;100.00;46719.00;6275021;22;20008;-73
2023/01/31 07:54:47;;;;;;;28.30;7.53;;;;;;;-145.18;100.00;46720.94;6274740;22;20000;-73
2023/01/31 07:57:12;;;;;;;28.40;6.53;;;;;;;-145.18;100.00;46717.03;6274783;22;20007;-73
2023/01/31 07:59:38;;;;;;;25.57;7.43;;;;;;;-145.18;100.00;46719.00;6274581;22;20007;-73
2023/01/31 08:04:47;;;;;;;24.00;5.93;;;;;;;-145.18;100.00;46722.91;6274115;22;20039;-73
2023/01/31 08:07:13;;;;;;;27.23;6.93;;;;;;;-145.18;100.00;46717.03;6274938;22;20562;-73
2023/01/31 08:09:38;;;;;;;30.27;7.67;;;;;;;-145.18;100.00;46717.03;6274616;22;20035;-72
2023/01/31 08:12:05;;;;;;;29.80;7.67;;;;;;;-145.18;100.00;46717.03;6274599;22;20425;-73
2023/01/31 08:14:31;;;;;;;20.90;6.67;;;;;;;-145.18;100.00;46715.09;6274565;22;20010;-72
2023/01/31 08:16:57;;;;;;;25.03;6.70;;;;;;;-145.18;100.00;46717.03;6274076;22;20228;-73
2023/01/31 08:19:22;;;;;;;20.60;5.93;;;;;;;-145.18;100.00;46720.94;6274474;22;20233;-73
2023/01/31 08:21:48;;;;;;;25.43;6.47;;;;;;;-145.18;100.00;46717.03;6274465;22;20062;-73
2023/01/31 08:24:13;;;;;;;29.57;7.03;;;;;;;-145.18;100.00;46713.13;6273676;22;20438;-73
2023/01/31 08:26:41;;;;;;;27.20;6.60;;;;;;;-145.18;100.00;46717.03;6274600;22;20333;-73
2023/01/31 08:29:07;;;;;;;29.70;7.07;;;;;;;-145.18;100.00;46711.19;6274305;22;19999;-73
2023/01/31 08:31:32;;;;;;;30.53;6.90;;;;;;;-145.18;100.00;46715.09;6274914;22;20237;-72
2023/01/31 08:33:58;;;;;;;23.63;6.60;;;;;;;-145.18;100.00;46713.13;6246866;22;20023;-73
2023/01/31 08:36:26;;;;;;;22.90;5.47;;;;;;;-145.18;100.00;46717.03;6274884;22;20008;-75
2023/01/31 08:38:52;;;;;;;22.97;5.63;;;;;;;-145.18;100.00;46713.13;6273988;22;20680;-73
2023/01/31 08:41:20;;;;;;;18.50;5.50;;;;;;;-145.18;100.00;46717.03;6274030;22;20236;-73
2023/01/31 08:43:49;;;;;;;26.73;6.87;;;;;;;-145.18;100.00;46711.19;6274688;22;20527;-73
2023/01/31 08:46:14;;;;;;;24.93;5.77;;;;;;;-145.18;100.00;46715.09;6273947;22;20241;-73
2023/01/31 08:48:41;;;;;;;24.63;6.03;;;;;;;-145.18;100.00;46711.19;6274308;22;20700;-73
2023/01/31 08:51:09;;;;;;;23.07;4.87;;;;;;;-145.18;100.00;46715.09;6273721;22;20373;-73
2023/01/31 08:53:37;;;;;;;18.70;4.57;;;;;;;-145.18;100.00;46707.28;6273787;22;20229;-73
2023/01/31 08:56:05;;;;;;;31.83;6.03;;;;;;;-145.18;100.00;46711.19;6247400;22;20256;-73
2023/01/31 08:58:32;;;;;;;22.50;5.07;;;;;;;-145.18;100.00;46711.19;6273883;22;20225;-73
2023/01/31 09:01:09;;;;;;;19.37;4.37;;;;;;;-145.18;100.00;46705.31;6274346;22;20236;-73
2023/01/31 09:03:36;;;;;;;29.60;6.13;;;;;;;-145.18;100.00;46703.38;6273464;22;20245;-73
2023/01/31 09:06:04;;;;;;;20.37;4.83;;;;;;;-145.18;100.00;46701.41;6246949;22;20658;-73
2023/01/31 09:08:30;;;;;;;23.90;4.47;;;;;;;-145.18;100.00;46699.47;6274078;22;20312;-73
2023/01/31 09:10:59;;;;;;;17.60;5.37;;;;;;;-145.18;100.00;46701.41;6273980;22;20615;-73
2023/01/31 09:13:25;;;;;;;24.23;5.67;;;;;;;-145.18;100.00;46699.47;6274041;22;20003;-73
2023/01/31 09:16:02;;;;;;;24.27;5.03;;;;;;;-145.18;100.00;46697.50;6274622;22;20286;-73
2023/01/31 09:18:28;;;;;;;24.17;5.40;;;;;;;-145.18;100.00;46697.50;6245806;22;20286;-73
2023/01/31 09:20:54;;;;;;;24.83;4.90;;;;;;;-145.18;100.00;46695.56;6273428;22;20236;-73
2023/01/31 09:23:21;;;;;;;26.63;5.50;;;;;;;-145.18;100.00;46695.56;6246045;22;20241;-73
2023/01/31 09:25:53;;;;;;;27.10;4.83;;;;;;;-145.18;100.00;46695.56;6273659;22;20100;-73
2023/01/31 09:28:19;;;;;;;25.10;6.43;;;;;;;-145.18;100.00;46693.59;6271440;22;20232;-73
2023/01/31 09:30:44;;;;;;;26.47;5.13;;;;;;;-145.18;100.00;46695.56;6272540;22;20667;-73
2023/01/31 09:33:10;;;;;;;22.30;5.20;;;;;;;-145.18;100.00;46693.59;6271827;22;20007;-74
2023/01/31 09:35:35;;;;;;;21.23;6.20;;;;;;;-145.18;100.00;46697.50;6271062;22;20065;-73
2023/01/31 09:38:00;;;;;;;16.17;5.17;;;;;;;-145.18;100.00;46693.59;6273520;22;20078;-73
2023/01/31 09:40:32;;;;;;;26.80;5.40;;;;;;;-145.18;100.00;46691.66;6246142;22;20019;-73
2023/01/31 09:43:01;;;;;;;25.57;6.80;;;;;;;-145.18;100.00;46695.56;6272739;22;20000;-73
2023/01/31 09:45:33;;;;;;;18.83;4.97;;;;;;;-145.18;100.00;46697.50;6272997;22;20697;-73
2023/01/31 09:48:01;;;;;;;32.63;6.03;;;;;;;-145.18;100.00;46695.56;6273610;22;20708;-73
2023/01/31 09:50:42;;;;;;;22.40;5.43;;;;;;;-145.18;100.00;46695.56;6273835;22;20358;-73
2023/01/31 09:53:12;;;;;;;21.83;6.30;;;;;;;-145.18;100.00;46691.66;6273333;22;20228;-73
2023/01/31 09:55:48;;;;;;;27.90;6.97;;;;;;;-145.18;100.00;46695.56;6273736;22;20218;-73
2023/01/31 09:58:34;;;;;;;26.15;6.95;;;;;;;-145.18;100.00;46695.56;6273235;22;20225;-73
2023/01/31 10:01:17;;;;;;;24.73;6.07;;;;;;;-145.18;100.00;46687.75;6274031;22;19995;-75
2023/01/31 10:03:50;;;;;;;26.87;6.60;;;;;;;-145.18;100.00;46695.56;6273312;22;20018;-73
2023/01/31 10:06:31;;;;;;;27.13;6.83;;;;;;;-145.18;100.00;46695.56;6273712;22;20233;-75
2023/01/31 10:09:50;;;;;;;22.53;7.47;;;;;;;-145.18;100.00;46695.56;6273289;22;20258;-73
2023/01/31 10:12:29;;;;;;;26.50;6.63;;;;;;;-145.18;100.00;46697.50;6205701;22;20397;-74
2023/01/31 10:15:02;;;;;;;23.70;6.30;;;;;;;-145.18;100.00;46693.59;6273724;22;20252;-75
2023/01/31 10:17:37;;;;;;;20.60;7.03;;;;;;;-145.18;100.00;46693.59;6274193;22;20550;-74
2023/01/31 10:20:20;;;;;;;19.20;6.93;;;;;;;-145.18;100.00;46703.38;6273220;22;20236;-73
2023/01/31 10:22:55;;;;;;;21.97;5.77;;;;;;;-145.18;100.00;46693.59;6273512;22;20008;-75
2023/01/31 10:25:26;;;;;;;20.50;5.33;;;;;;;-145.18;100.00;46691.66;6273124;22;20252;-75
2023/01/31 10:28:03;;;;;;;19.43;6.17;;;;;;;-145.18;100.00;46693.59;6246786;22;20229;-75
2023/01/31 10:31:09;;;;;;;35.70;7.67;;;;;;;-145.18;100.00;46687.75;6273233;22;20681;-75
2023/01/31 10:33:59;;;;;;;20.42;4.82;;;;;;;-145.18;100.00;46689.69;6273596;22;20249;-75
2023/01/31 10:36:37;;;;;;;45.90;12.43;;;;;;;-145.18;100.00;46691.66;6272804;22;20000;-75
2023/01/31 10:39:21;;;;;;;29.27;6.30;;;;;;;-145.18;100.00;46689.69;6272129;22;20221;-75
2023/01/31 10:41:59;;;;;;;26.87;6.97;;;;;;;-145.18;100.00;46689.69;6273204;22;20709;-75
2023/01/31 10:44:39;;;;;;;20.17;5.20;;;;;;;-145.18;100.00;46685.78;6272746;22;20244;-75
2023/01/31 10:47:11;;;;;;;29.23;5.90;;;;;;;-145.18;100.00;46683.84;6275058;22;20213;-75
2023/01/31 10:49:37;;;;;;;19.93;5.00;;;;;;;-145.18;100.00;46672.13;6276113;22;20224;-74
2023/01/31 10:52:03;;;;;;;19.73;4.70;;;;;;;-145.18;100.00;46674.06;6275968;22;20686;-75
2023/01/31 10:54:37;;;;;;;21.53;5.60;;;;;;;-145.18;100.00;46674.06;6275455;22;20011;-74
2023/01/31 10:57:03;;;;;;;24.33;5.53;;;;;;;-145.18;100.00;46670.16;6276040;22;20220;-74
2023/01/31 10:59:39;;;;;;;27.37;6.20;;;;;;;-145.18;100.00;46668.22;6275785;22;20229;-75
2023/01/31 11:02:20;;;;;;;25.60;5.07;;;;;;;-145.18;100.00;46656.50;6275915;22;20065;-75
2023/01/31 11:04:45;;;;;;;30.40;5.17;;;;;;;-145.18;100.00;46638.91;6275758;22;20320;-74
2023/01/31 11:07:11;;;;;;;22.27;5.20;;;;;;;-145.18;100.00;46625.22;6274183;22;20220;-74
2023/01/31 11:09:40;;;;;;;14.70;4.07;;;;;;;-145.18;100.00;46629.13;6275865;22;20043;-75
2023/01/31 11:12:07;;;;;;;28.60;4.17;;;;;;;-145.18;100.00;46638.91;6275839;22;20004;-75
2023/01/31 11:14:35;;;;;;;25.07;3.77;;;;;;;-145.18;100.00;46644.78;6275874;22;20726;-74
2023/01/31 11:17:23;;;;;;;23.40;4.40;;;;;;;-145.18;100.00;46670.16;6276097;22;20298;-75
2023/01/31 11:19:55;;;;;;;24.80;5.40;;;;;;;-145.18;100.00;46674.06;6274887;22;20233;-75
2023/01/31 11:22:22;;;;;;;14.43;3.63;;;;;;;-145.18;100.00;46672.13;6274347;22;20300;-75
2023/01/31 11:24:49;;;;;;;24.13;4.60;;;;;;;-145.18;100.00;46687.75;6273968;22;20284;-75